sensor_id;sensor_type;location;lat;lon;timestamp;P1;durP1;ratioP1;P2;durP2;ratioP2
66669;SDS011;53568;52.164;4.472;2022-10-30T00:01:12;11.52;;;11.50;;
66669;SDS011;53568;52.164;4.472;2022-10-30T00:03:38;11.10;;;11.08;;
66669;SDS011;53568;52.164;4.472;2022-10-30T00:06:04;11.06;;;11.02;;
66669;SDS011;53568;52.164;4.472;2022-10-30T00:08:33;10.78;;;10.74;;
66669;SDS011;53568;52.164;4.472;2022-10-30T00:11:08;10.54;;;10.51;;
66669;SDS011;53568;52.164;4.472;2022-10-30T00:13:36;10.72;;;10.69;;
66669;SDS011;53568;52.164;4.472;2022-10-30T00:16:04;11.08;;;11.06;;
66669;SDS011;53568;52.164;4.472;2022-10-30T00:18:31;11.27;;;11.26;;
66669;SDS011;53568;52.164;4.472;2022-10-30T00:20:57;10.93;;;10.90;;
66669;SDS011;53568;52.164;4.472;2022-10-30T00:23:28;10.88;;;10.84;;
66669;SDS011;53568;52.164;4.472;2022-10-30T00:25:53;10.60;;;10.59;;
66669;SDS011;53568;52.164;4.472;2022-10-30T00:28:19;10.96;;;10.96;;
66669;SDS011;53568;52.164;4.472;2022-10-30T00:30:44;10.74;;;10.74;;
66669;SDS011;53568;52.164;4.472;2022-10-30T00:33:10;11.54;;;11.53;;
66669;SDS011;53568;52.164;4.472;2022-10-30T00:35:35;11.31;;;11.30;;
66669;SDS011;53568;52.164;4.472;2022-10-30T00:38:00;11.44;;;11.43;;
66669;SDS011;53568;52.164;4.472;2022-10-30T00:40:26;11.43;;;11.41;;
66669;SDS011;53568;52.164;4.472;2022-10-30T00:42:51;11.03;;;11.03;;
66669;SDS011;53568;52.164;4.472;2022-10-30T00:45:17;11.53;;;11.53;;
66669;SDS011;53568;52.164;4.472;2022-10-30T00:50:21;11.16;;;11.16;;
66669;SDS011;53568;52.164;4.472;2022-10-30T00:52:56;11.12;;;11.11;;
66669;SDS011;53568;52.164;4.472;2022-10-30T00:55:31;11.57;;;11.53;;
66669;SDS011;53568;52.164;4.472;2022-10-30T00:58:07;11.50;;;11.45;;
66669;SDS011;53568;52.164;4.472;2022-10-30T01:00:37;11.58;;;11.53;;
66669;SDS011;53568;52.164;4.472;2022-10-30T01:03:07;11.78;;;11.77;;
66669;SDS011;53568;52.164;4.472;2022-10-30T01:05:34;11.77;;;11.77;;
66669;SDS011;53568;52.164;4.472;2022-10-30T01:08:00;11.61;;;11.61;;
66669;SDS011;53568;52.164;4.472;2022-10-30T01:10:26;11.56;;;11.56;;
66669;SDS011;53568;52.164;4.472;2022-10-30T01:12:51;11.90;;;11.90;;
66669;SDS011;53568;52.164;4.472;2022-10-30T01:15:21;11.40;;;11.38;;
66669;SDS011;53568;52.164;4.472;2022-10-30T01:20:59;11.80;;;11.77;;
66669;SDS011;53568;52.164;4.472;2022-10-30T01:23:38;11.44;;;11.43;;
66669;SDS011;53568;52.164;4.472;2022-10-30T01:34:44;11.31;;;11.28;;
66669;SDS011;53568;52.164;4.472;2022-10-30T01:37:24;11.50;;;11.48;;
66669;SDS011;53568;52.164;4.472;2022-10-30T01:40:04;11.64;;;11.63;;
66669;SDS011;53568;52.164;4.472;2022-10-30T01:53:35;11.71;;;11.70;;
66669;SDS011;53568;52.164;4.472;2022-10-30T01:59:27;11.78;;;11.77;;
66669;SDS011;53568;52.164;4.472;2022-10-30T02:01:59;12.22;;;12.21;;
66669;SDS011;53568;52.164;4.472;2022-10-30T02:04:25;11.85;;;11.85;;
66669;SDS011;53568;52.164;4.472;2022-10-30T02:06:51;11.67;;;11.67;;
66669;SDS011;53568;52.164;4.472;2022-10-30T02:09:16;11.91;;;11.91;;
66669;SDS011;53568;52.164;4.472;2022-10-30T02:11:43;11.42;;;11.40;;
66669;SDS011;53568;52.164;4.472;2022-10-30T02:14:11;11.57;;;11.55;;
66669;SDS011;53568;52.164;4.472;2022-10-30T02:16:45;11.97;;;11.97;;
66669;SDS011;53568;52.164;4.472;2022-10-30T02:19:15;11.92;;;11.92;;
66669;SDS011;53568;52.164;4.472;2022-10-30T02:21:41;12.37;;;12.37;;
66669;SDS011;53568;52.164;4.472;2022-10-30T02:24:07;11.95;;;11.95;;
66669;SDS011;53568;52.164;4.472;2022-10-30T02:26:32;11.75;;;11.74;;
66669;SDS011;53568;52.164;4.472;2022-10-30T02:28:58;11.99;;;11.99;;
66669;SDS011;53568;52.164;4.472;2022-10-30T02:31:23;12.20;;;12.16;;
66669;SDS011;53568;52.164;4.472;2022-10-30T02:33:49;12.25;;;12.25;;
66669;SDS011;53568;52.164;4.472;2022-10-30T02:36:14;12.15;;;12.15;;
66669;SDS011;53568;52.164;4.472;2022-10-30T02:38:40;12.04;;;12.04;;
66669;SDS011;53568;52.164;4.472;2022-10-30T02:41:06;11.93;;;11.91;;
66669;SDS011;53568;52.164;4.472;2022-10-30T02:43:32;11.87;;;11.86;;
66669;SDS011;53568;52.164;4.472;2022-10-30T02:45:57;12.05;;;12.05;;
66669;SDS011;53568;52.164;4.472;2022-10-30T02:48:23;11.85;;;11.85;;
66669;SDS011;53568;52.164;4.472;2022-10-30T02:50:49;12.18;;;12.17;;
66669;SDS011;53568;52.164;4.472;2022-10-30T02:53:14;11.99;;;11.98;;
66669;SDS011;53568;52.164;4.472;2022-10-30T02:55:39;12.41;;;12.41;;
66669;SDS011;53568;52.164;4.472;2022-10-30T02:58:05;13.07;;;13.07;;
66669;SDS011;53568;52.164;4.472;2022-10-30T03:00:30;13.00;;;12.99;;
66669;SDS011;53568;52.164;4.472;2022-10-30T03:02:57;13.36;;;13.32;;
66669;SDS011;53568;52.164;4.472;2022-10-30T03:05:23;13.03;;;12.99;;
66669;SDS011;53568;52.164;4.472;2022-10-30T03:07:49;13.03;;;13.03;;
66669;SDS011;53568;52.164;4.472;2022-10-30T03:10:15;12.79;;;12.79;;
66669;SDS011;53568;52.164;4.472;2022-10-30T03:12:41;12.54;;;12.53;;
66669;SDS011;53568;52.164;4.472;2022-10-30T03:15:07;13.14;;;13.08;;
66669;SDS011;53568;52.164;4.472;2022-10-30T03:17:33;12.78;;;12.77;;
66669;SDS011;53568;52.164;4.472;2022-10-30T03:19:58;12.84;;;12.83;;
66669;SDS011;53568;52.164;4.472;2022-10-30T03:22:24;13.28;;;13.27;;
66669;SDS011;53568;52.164;4.472;2022-10-30T03:24:49;12.94;;;12.92;;
66669;SDS011;53568;52.164;4.472;2022-10-30T03:27:15;12.99;;;12.98;;
66669;SDS011;53568;52.164;4.472;2022-10-30T03:29:40;12.68;;;12.68;;
66669;SDS011;53568;52.164;4.472;2022-10-30T03:32:09;12.53;;;12.53;;
66669;SDS011;53568;52.164;4.472;2022-10-30T03:34:35;12.56;;;12.55;;
66669;SDS011;53568;52.164;4.472;2022-10-30T03:37:01;12.91;;;12.90;;
66669;SDS011;53568;52.164;4.472;2022-10-30T03:39:27;12.90;;;12.89;;
66669;SDS011;53568;52.164;4.472;2022-10-30T03:41:53;13.33;;;13.32;;
66669;SDS011;53568;52.164;4.472;2022-10-30T03:44:19;12.80;;;12.76;;
66669;SDS011;53568;52.164;4.472;2022-10-30T03:46:44;12.68;;;12.68;;
66669;SDS011;53568;52.164;4.472;2022-10-30T03:49:10;12.36;;;12.36;;
66669;SDS011;53568;52.164;4.472;2022-10-30T03:51:35;12.35;;;12.34;;
66669;SDS011;53568;52.164;4.472;2022-10-30T03:54:00;13.04;;;13.01;;
66669;SDS011;53568;52.164;4.472;2022-10-30T03:56:26;13.70;;;13.63;;
66669;SDS011;53568;52.164;4.472;2022-10-30T03:58:51;13.22;;;13.22;;
66669;SDS011;53568;52.164;4.472;2022-10-30T04:01:17;13.02;;;12.99;;
66669;SDS011;53568;52.164;4.472;2022-10-30T04:03:42;12.72;;;12.70;;
66669;SDS011;53568;52.164;4.472;2022-10-30T04:06:08;12.66;;;12.65;;
66669;SDS011;53568;52.164;4.472;2022-10-30T04:08:33;12.70;;;12.70;;
66669;SDS011;53568;52.164;4.472;2022-10-30T04:10:59;12.43;;;12.40;;
66669;SDS011;53568;52.164;4.472;2022-10-30T04:13:25;12.03;;;11.99;;
66669;SDS011;53568;52.164;4.472;2022-10-30T04:15:50;12.20;;;12.13;;
66669;SDS011;53568;52.164;4.472;2022-10-30T04:18:17;12.72;;;12.71;;
66669;SDS011;53568;52.164;4.472;2022-10-30T04:20:43;12.60;;;12.60;;
66669;SDS011;53568;52.164;4.472;2022-10-30T04:23:12;12.40;;;12.40;;
66669;SDS011;53568;52.164;4.472;2022-10-30T04:25:39;13.06;;;13.03;;
66669;SDS011;53568;52.164;4.472;2022-10-30T04:28:05;13.03;;;13.02;;
66669;SDS011;53568;52.164;4.472;2022-10-30T04:30:30;13.39;;;13.38;;
66669;SDS011;53568;52.164;4.472;2022-10-30T04:32:59;12.71;;;12.71;;
66669;SDS011;53568;52.164;4.472;2022-10-30T04:35:27;13.02;;;13.01;;
66669;SDS011;53568;52.164;4.472;2022-10-30T04:37:56;13.06;;;13.01;;
66669;SDS011;53568;52.164;4.472;2022-10-30T04:40:26;13.04;;;13.02;;
66669;SDS011;53568;52.164;4.472;2022-10-30T04:42:53;13.38;;;13.38;;
66669;SDS011;53568;52.164;4.472;2022-10-30T04:45:20;13.60;;;13.54;;
66669;SDS011;53568;52.164;4.472;2022-10-30T04:47:45;13.54;;;13.51;;
66669;SDS011;53568;52.164;4.472;2022-10-30T04:50:11;13.08;;;13.05;;
66669;SDS011;53568;52.164;4.472;2022-10-30T04:52:39;12.83;;;12.82;;
66669;SDS011;53568;52.164;4.472;2022-10-30T04:55:05;13.39;;;13.38;;
66669;SDS011;53568;52.164;4.472;2022-10-30T04:57:32;13.17;;;13.16;;
66669;SDS011;53568;52.164;4.472;2022-10-30T04:59:58;12.59;;;12.55;;
66669;SDS011;53568;52.164;4.472;2022-10-30T05:02:24;12.56;;;12.51;;
66669;SDS011;53568;52.164;4.472;2022-10-30T05:04:50;12.02;;;12.00;;
66669;SDS011;53568;52.164;4.472;2022-10-30T05:07:15;12.68;;;12.67;;
66669;SDS011;53568;52.164;4.472;2022-10-30T05:09:42;12.67;;;12.67;;
66669;SDS011;53568;52.164;4.472;2022-10-30T05:12:08;12.45;;;12.45;;
66669;SDS011;53568;52.164;4.472;2022-10-30T05:14:34;12.79;;;12.79;;
66669;SDS011;53568;52.164;4.472;2022-10-30T05:17:00;12.94;;;12.94;;
66669;SDS011;53568;52.164;4.472;2022-10-30T05:19:26;13.08;;;13.07;;
66669;SDS011;53568;52.164;4.472;2022-10-30T05:21:51;13.18;;;13.17;;
66669;SDS011;53568;52.164;4.472;2022-10-30T05:24:17;13.29;;;13.26;;
66669;SDS011;53568;52.164;4.472;2022-10-30T05:26:42;12.93;;;12.92;;
66669;SDS011;53568;52.164;4.472;2022-10-30T05:29:08;13.55;;;13.55;;
66669;SDS011;53568;52.164;4.472;2022-10-30T05:31:34;13.06;;;13.06;;
66669;SDS011;53568;52.164;4.472;2022-10-30T05:34:00;13.87;;;13.87;;
66669;SDS011;53568;52.164;4.472;2022-10-30T05:36:25;13.69;;;13.68;;
66669;SDS011;53568;52.164;4.472;2022-10-30T05:38:51;13.43;;;13.40;;
66669;SDS011;53568;52.164;4.472;2022-10-30T05:41:16;13.73;;;13.71;;
66669;SDS011;53568;52.164;4.472;2022-10-30T05:43:42;13.36;;;13.31;;
66669;SDS011;53568;52.164;4.472;2022-10-30T05:46:07;13.58;;;13.55;;
66669;SDS011;53568;52.164;4.472;2022-10-30T05:48:33;12.62;;;12.60;;
66669;SDS011;53568;52.164;4.472;2022-10-30T05:50:59;13.00;;;12.99;;
66669;SDS011;53568;52.164;4.472;2022-10-30T05:53:24;12.66;;;12.62;;
66669;SDS011;53568;52.164;4.472;2022-10-30T05:55:50;12.31;;;12.31;;
66669;SDS011;53568;52.164;4.472;2022-10-30T05:58:16;12.86;;;12.84;;
66669;SDS011;53568;52.164;4.472;2022-10-30T06:00:41;13.55;;;13.49;;
66669;SDS011;53568;52.164;4.472;2022-10-30T06:03:11;13.09;;;13.08;;
66669;SDS011;53568;52.164;4.472;2022-10-30T06:05:37;13.22;;;13.21;;
66669;SDS011;53568;52.164;4.472;2022-10-30T06:08:04;13.80;;;13.69;;
66669;SDS011;53568;52.164;4.472;2022-10-30T06:10:31;13.13;;;13.12;;
66669;SDS011;53568;52.164;4.472;2022-10-30T06:12:58;13.21;;;13.20;;
66669;SDS011;53568;52.164;4.472;2022-10-30T06:15:25;13.28;;;13.26;;
66669;SDS011;53568;52.164;4.472;2022-10-30T06:17:52;13.79;;;13.71;;
66669;SDS011;53568;52.164;4.472;2022-10-30T06:20:18;14.05;;;13.98;;
66669;SDS011;53568;52.164;4.472;2022-10-30T06:22:53;13.78;;;13.76;;
66669;SDS011;53568;52.164;4.472;2022-10-30T06:25:19;13.44;;;13.43;;
66669;SDS011;53568;52.164;4.472;2022-10-30T06:27:44;13.54;;;13.54;;
66669;SDS011;53568;52.164;4.472;2022-10-30T06:30:10;13.53;;;13.47;;
66669;SDS011;53568;52.164;4.472;2022-10-30T06:32:36;13.96;;;13.87;;
66669;SDS011;53568;52.164;4.472;2022-10-30T06:35:01;14.17;;;14.14;;
66669;SDS011;53568;52.164;4.472;2022-10-30T06:37:27;14.02;;;14.02;;
66669;SDS011;53568;52.164;4.472;2022-10-30T06:39:53;13.50;;;13.50;;
66669;SDS011;53568;52.164;4.472;2022-10-30T06:42:18;13.66;;;13.66;;
66669;SDS011;53568;52.164;4.472;2022-10-30T06:44:44;13.47;;;13.45;;
66669;SDS011;53568;52.164;4.472;2022-10-30T06:47:09;14.26;;;14.26;;
66669;SDS011;53568;52.164;4.472;2022-10-30T06:49:35;14.09;;;14.09;;
66669;SDS011;53568;52.164;4.472;2022-10-30T06:52:00;14.57;;;14.57;;
66669;SDS011;53568;52.164;4.472;2022-10-30T06:54:26;14.30;;;14.29;;
66669;SDS011;53568;52.164;4.472;2022-10-30T06:56:51;14.96;;;14.94;;
66669;SDS011;53568;52.164;4.472;2022-10-30T06:59:17;13.99;;;13.99;;
66669;SDS011;53568;52.164;4.472;2022-10-30T07:01:42;14.36;;;14.36;;
66669;SDS011;53568;52.164;4.472;2022-10-30T07:04:08;13.99;;;13.98;;
66669;SDS011;53568;52.164;4.472;2022-10-30T07:06:33;13.69;;;13.68;;
66669;SDS011;53568;52.164;4.472;2022-10-30T07:08:59;14.12;;;14.10;;
66669;SDS011;53568;52.164;4.472;2022-10-30T07:11:24;14.99;;;14.89;;
66669;SDS011;53568;52.164;4.472;2022-10-30T07:13:50;14.58;;;14.54;;
66669;SDS011;53568;52.164;4.472;2022-10-30T07:16:15;14.23;;;14.20;;
66669;SDS011;53568;52.164;4.472;2022-10-30T07:18:41;14.25;;;14.24;;
66669;SDS011;53568;52.164;4.472;2022-10-30T07:21:07;14.46;;;14.38;;
66669;SDS011;53568;52.164;4.472;2022-10-30T07:23:32;14.74;;;14.72;;
66669;SDS011;53568;52.164;4.472;2022-10-30T07:25:58;14.53;;;14.48;;
66669;SDS011;53568;52.164;4.472;2022-10-30T07:28:23;14.10;;;14.05;;
66669;SDS011;53568;52.164;4.472;2022-10-30T07:30:49;14.90;;;14.85;;
66669;SDS011;53568;52.164;4.472;2022-10-30T07:33:14;14.93;;;14.91;;
66669;SDS011;53568;52.164;4.472;2022-10-30T07:35:40;14.65;;;14.58;;
66669;SDS011;53568;52.164;4.472;2022-10-30T07:38:06;14.58;;;14.40;;
66669;SDS011;53568;52.164;4.472;2022-10-30T07:40:35;14.56;;;14.48;;
66669;SDS011;53568;52.164;4.472;2022-10-30T07:43:02;14.72;;;14.68;;
66669;SDS011;53568;52.164;4.472;2022-10-30T07:45:30;14.34;;;14.30;;
66669;SDS011;53568;52.164;4.472;2022-10-30T07:47:56;14.80;;;14.78;;
66669;SDS011;53568;52.164;4.472;2022-10-30T07:50:22;14.66;;;14.65;;
66669;SDS011;53568;52.164;4.472;2022-10-30T07:52:48;14.49;;;14.49;;
66669;SDS011;53568;52.164;4.472;2022-10-30T07:55:13;14.68;;;14.68;;
66669;SDS011;53568;52.164;4.472;2022-10-30T07:57:40;14.78;;;14.77;;
66669;SDS011;53568;52.164;4.472;2022-10-30T08:00:08;14.58;;;14.55;;
66669;SDS011;53568;52.164;4.472;2022-10-30T08:02:35;14.40;;;14.35;;
66669;SDS011;53568;52.164;4.472;2022-10-30T08:05:02;14.01;;;13.97;;
66669;SDS011;53568;52.164;4.472;2022-10-30T08:07:33;14.76;;;14.73;;
66669;SDS011;53568;52.164;4.472;2022-10-30T08:10:00;15.12;;;15.10;;
66669;SDS011;53568;52.164;4.472;2022-10-30T08:12:26;14.64;;;14.61;;
66669;SDS011;53568;52.164;4.472;2022-10-30T08:14:51;15.30;;;15.24;;
66669;SDS011;53568;52.164;4.472;2022-10-30T08:17:17;14.54;;;14.53;;
66669;SDS011;53568;52.164;4.472;2022-10-30T08:19:43;14.78;;;14.78;;
66669;SDS011;53568;52.164;4.472;2022-10-30T08:22:09;14.89;;;14.89;;
66669;SDS011;53568;52.164;4.472;2022-10-30T08:24:35;15.31;;;15.31;;
66669;SDS011;53568;52.164;4.472;2022-10-30T08:27:01;15.54;;;15.54;;
66669;SDS011;53568;52.164;4.472;2022-10-30T08:29:27;15.61;;;15.55;;
66669;SDS011;53568;52.164;4.472;2022-10-30T08:31:52;15.34;;;15.26;;
66669;SDS011;53568;52.164;4.472;2022-10-30T08:34:18;15.24;;;15.24;;
66669;SDS011;53568;52.164;4.472;2022-10-30T08:36:46;15.23;;;15.23;;
66669;SDS011;53568;52.164;4.472;2022-10-30T08:39:12;15.67;;;15.64;;
66669;SDS011;53568;52.164;4.472;2022-10-30T08:41:38;15.87;;;15.86;;
66669;SDS011;53568;52.164;4.472;2022-10-30T08:44:03;15.46;;;15.45;;
66669;SDS011;53568;52.164;4.472;2022-10-30T08:46:29;15.16;;;15.15;;
66669;SDS011;53568;52.164;4.472;2022-10-30T08:48:55;15.23;;;15.19;;
66669;SDS011;53568;52.164;4.472;2022-10-30T08:51:20;15.68;;;15.60;;
66669;SDS011;53568;52.164;4.472;2022-10-30T08:53:48;15.87;;;15.73;;
66669;SDS011;53568;52.164;4.472;2022-10-30T08:56:15;15.53;;;15.49;;
66669;SDS011;53568;52.164;4.472;2022-10-30T08:58:41;16.18;;;16.14;;
66669;SDS011;53568;52.164;4.472;2022-10-30T09:01:07;15.55;;;15.55;;
66669;SDS011;53568;52.164;4.472;2022-10-30T09:03:32;15.54;;;15.53;;
66669;SDS011;53568;52.164;4.472;2022-10-30T09:05:58;15.10;;;15.09;;
66669;SDS011;53568;52.164;4.472;2022-10-30T09:08:25;16.40;;;16.40;;
66669;SDS011;53568;52.164;4.472;2022-10-30T09:10:55;16.17;;;16.17;;
66669;SDS011;53568;52.164;4.472;2022-10-30T09:13:22;16.44;;;16.41;;
66669;SDS011;53568;52.164;4.472;2022-10-30T09:15:48;16.29;;;16.28;;
66669;SDS011;53568;52.164;4.472;2022-10-30T09:18:13;15.64;;;15.59;;
66669;SDS011;53568;52.164;4.472;2022-10-30T09:20:39;14.98;;;14.97;;
66669;SDS011;53568;52.164;4.472;2022-10-30T09:23:04;15.56;;;15.50;;
66669;SDS011;53568;52.164;4.472;2022-10-30T09:25:30;15.21;;;15.19;;
66669;SDS011;53568;52.164;4.472;2022-10-30T09:27:55;15.44;;;15.42;;
66669;SDS011;53568;52.164;4.472;2022-10-30T09:30:21;15.67;;;15.67;;
66669;SDS011;53568;52.164;4.472;2022-10-30T09:32:59;15.82;;;15.82;;
66669;SDS011;53568;52.164;4.472;2022-10-30T09:35:29;15.74;;;15.73;;
66669;SDS011;53568;52.164;4.472;2022-10-30T09:37:55;15.60;;;15.58;;
66669;SDS011;53568;52.164;4.472;2022-10-30T09:40:27;16.20;;;16.20;;
66669;SDS011;53568;52.164;4.472;2022-10-30T09:46:06;14.73;;;14.73;;
66669;SDS011;53568;52.164;4.472;2022-10-30T09:57:01;15.39;;;15.38;;
66669;SDS011;53568;52.164;4.472;2022-10-30T10:05:10;15.12;;;15.11;;
66669;SDS011;53568;52.164;4.472;2022-10-30T10:08:03;15.00;;;14.99;;
66669;SDS011;53568;52.164;4.472;2022-10-30T10:10:36;15.20;;;15.13;;
66669;SDS011;53568;52.164;4.472;2022-10-30T10:13:05;14.01;;;13.98;;
66669;SDS011;53568;52.164;4.472;2022-10-30T10:15:53;14.23;;;14.23;;
66669;SDS011;53568;52.164;4.472;2022-10-30T10:18:31;14.08;;;14.07;;
66669;SDS011;53568;52.164;4.472;2022-10-30T10:21:17;14.03;;;13.98;;
66669;SDS011;53568;52.164;4.472;2022-10-30T10:23:55;14.07;;;14.06;;
66669;SDS011;53568;52.164;4.472;2022-10-30T10:29:30;13.43;;;13.43;;
66669;SDS011;53568;52.164;4.472;2022-10-30T10:32:09;13.46;;;13.43;;
66669;SDS011;53568;52.164;4.472;2022-10-30T10:40:53;13.15;;;13.15;;
66669;SDS011;53568;52.164;4.472;2022-10-30T10:43:39;12.73;;;12.72;;
66669;SDS011;53568;52.164;4.472;2022-10-30T10:46:34;12.56;;;12.55;;
66669;SDS011;53568;52.164;4.472;2022-10-30T10:51:50;12.86;;;12.86;;
66669;SDS011;53568;52.164;4.472;2022-10-30T10:54:30;12.36;;;12.35;;
66669;SDS011;53568;52.164;4.472;2022-10-30T10:57:02;12.45;;;12.44;;
66669;SDS011;53568;52.164;4.472;2022-10-30T10:59:41;12.42;;;12.40;;
66669;SDS011;53568;52.164;4.472;2022-10-30T11:02:22;12.31;;;12.30;;
66669;SDS011;53568;52.164;4.472;2022-10-30T11:04:54;12.11;;;12.10;;
66669;SDS011;53568;52.164;4.472;2022-10-30T11:07:29;12.13;;;12.11;;
66669;SDS011;53568;52.164;4.472;2022-10-30T11:09:58;12.06;;;12.05;;
66669;SDS011;53568;52.164;4.472;2022-10-30T11:12:26;12.21;;;12.20;;
66669;SDS011;53568;52.164;4.472;2022-10-30T11:14:55;11.78;;;11.75;;
66669;SDS011;53568;52.164;4.472;2022-10-30T11:17:25;11.72;;;11.72;;
66669;SDS011;53568;52.164;4.472;2022-10-30T11:20:19;11.59;;;11.52;;
66669;SDS011;53568;52.164;4.472;2022-10-30T11:22:52;11.96;;;11.95;;
66669;SDS011;53568;52.164;4.472;2022-10-30T11:27:45;11.70;;;11.68;;
66669;SDS011;53568;52.164;4.472;2022-10-30T11:30:20;11.61;;;11.58;;
66669;SDS011;53568;52.164;4.472;2022-10-30T11:32:49;11.63;;;11.63;;
66669;SDS011;53568;52.164;4.472;2022-10-30T11:35:16;11.46;;;11.39;;
66669;SDS011;53568;52.164;4.472;2022-10-30T11:37:44;11.27;;;11.23;;
66669;SDS011;53568;52.164;4.472;2022-10-30T11:42:41;11.13;;;11.04;;
66669;SDS011;53568;52.164;4.472;2022-10-30T11:45:41;11.11;;;11.09;;
66669;SDS011;53568;52.164;4.472;2022-10-30T11:48:17;10.52;;;10.52;;
66669;SDS011;53568;52.164;4.472;2022-10-30T11:50:49;11.23;;;11.19;;
66669;SDS011;53568;52.164;4.472;2022-10-30T11:53:32;10.81;;;10.81;;
66669;SDS011;53568;52.164;4.472;2022-10-30T11:56:13;11.16;;;11.15;;
66669;SDS011;53568;52.164;4.472;2022-10-30T11:58:51;11.05;;;11.05;;
66669;SDS011;53568;52.164;4.472;2022-10-30T12:03:55;10.47;;;10.47;;
66669;SDS011;53568;52.164;4.472;2022-10-30T12:06:36;10.79;;;10.77;;
66669;SDS011;53568;52.164;4.472;2022-10-30T12:11:38;10.66;;;10.66;;
66669;SDS011;53568;52.164;4.472;2022-10-30T12:14:18;11.05;;;11.02;;
66669;SDS011;53568;52.164;4.472;2022-10-30T12:16:46;11.65;;;11.60;;
66669;SDS011;53568;52.164;4.472;2022-10-30T12:19:15;11.90;;;11.89;;
66669;SDS011;53568;52.164;4.472;2022-10-30T12:21:45;11.39;;;11.39;;
66669;SDS011;53568;52.164;4.472;2022-10-30T12:24:16;11.12;;;11.12;;
66669;SDS011;53568;52.164;4.472;2022-10-30T12:26:48;11.83;;;11.81;;
66669;SDS011;53568;52.164;4.472;2022-10-30T12:29:18;11.62;;;11.61;;
66669;SDS011;53568;52.164;4.472;2022-10-30T12:32:04;11.40;;;11.38;;
66669;SDS011;53568;52.164;4.472;2022-10-30T12:37:08;11.17;;;11.16;;
66669;SDS011;53568;52.164;4.472;2022-10-30T12:40:26;11.80;;;11.79;;
66669;SDS011;53568;52.164;4.472;2022-10-30T12:42:43;11.00;;;11.00;;
66669;SDS011;53568;52.164;4.472;2022-10-30T12:45:33;10.79;;;10.79;;
66669;SDS011;53568;52.164;4.472;2022-10-30T12:48:20;10.44;;;10.44;;
66669;SDS011;53568;52.164;4.472;2022-10-30T12:53:56;10.76;;;10.73;;
66669;SDS011;53568;52.164;4.472;2022-10-30T12:56:47;10.75;;;10.74;;
66669;SDS011;53568;52.164;4.472;2022-10-30T13:02:20;10.67;;;10.67;;
66669;SDS011;53568;52.164;4.472;2022-10-30T13:04:58;10.43;;;10.43;;
66669;SDS011;53568;52.164;4.472;2022-10-30T13:07:35;10.58;;;10.58;;
66669;SDS011;53568;52.164;4.472;2022-10-30T13:10:33;10.57;;;10.54;;
66669;SDS011;53568;52.164;4.472;2022-10-30T13:15:45;10.70;;;10.70;;
66669;SDS011;53568;52.164;4.472;2022-10-30T13:18:24;10.59;;;10.59;;
66669;SDS011;53568;52.164;4.472;2022-10-30T13:26:47;10.31;;;10.30;;
66669;SDS011;53568;52.164;4.472;2022-10-30T13:29:30;10.18;;;10.18;;
66669;SDS011;53568;52.164;4.472;2022-10-30T13:39:59;9.96;;;9.94;;
66669;SDS011;53568;52.164;4.472;2022-10-30T13:45:46;9.77;;;9.71;;
66669;SDS011;53568;52.164;4.472;2022-10-30T13:56:47;9.91;;;9.91;;
66669;SDS011;53568;52.164;4.472;2022-10-30T14:13:20;9.82;;;9.77;;
66669;SDS011;53568;52.164;4.472;2022-10-30T14:15:52;9.09;;;9.04;;
66669;SDS011;53568;52.164;4.472;2022-10-30T14:18:22;8.97;;;8.96;;
66669;SDS011;53568;52.164;4.472;2022-10-30T14:20:50;8.47;;;8.46;;
66669;SDS011;53568;52.164;4.472;2022-10-30T14:28:35;8.46;;;8.44;;
66669;SDS011;53568;52.164;4.472;2022-10-30T14:31:06;8.26;;;8.26;;
66669;SDS011;53568;52.164;4.472;2022-10-30T14:41:40;8.11;;;8.07;;
66669;SDS011;53568;52.164;4.472;2022-10-30T14:44:39;7.52;;;7.49;;
66669;SDS011;53568;52.164;4.472;2022-10-30T14:50:19;14.59;;;14.49;;
66669;SDS011;53568;52.164;4.472;2022-10-30T14:56:39;7.97;;;7.91;;
66669;SDS011;53568;52.164;4.472;2022-10-30T14:59:08;7.59;;;7.54;;
66669;SDS011;53568;52.164;4.472;2022-10-30T15:07:37;7.81;;;7.79;;
66669;SDS011;53568;52.164;4.472;2022-10-30T15:10:20;8.03;;;7.94;;
66669;SDS011;53568;52.164;4.472;2022-10-30T15:15:33;7.73;;;7.69;;
66669;SDS011;53568;52.164;4.472;2022-10-30T15:18:18;7.72;;;7.69;;
66669;SDS011;53568;52.164;4.472;2022-10-30T15:20:48;7.74;;;7.73;;
66669;SDS011;53568;52.164;4.472;2022-10-30T15:23:23;7.91;;;7.87;;
66669;SDS011;53568;52.164;4.472;2022-10-30T15:25:54;7.74;;;7.62;;
66669;SDS011;53568;52.164;4.472;2022-10-30T15:28:28;7.37;;;7.30;;
66669;SDS011;53568;52.164;4.472;2022-10-30T15:31:03;7.28;;;7.17;;
66669;SDS011;53568;52.164;4.472;2022-10-30T15:33:33;6.85;;;6.78;;
66669;SDS011;53568;52.164;4.472;2022-10-30T15:36:01;6.61;;;6.59;;
66669;SDS011;53568;52.164;4.472;2022-10-30T15:38:27;6.38;;;6.34;;
66669;SDS011;53568;52.164;4.472;2022-10-30T15:40:57;6.45;;;6.33;;
66669;SDS011;53568;52.164;4.472;2022-10-30T15:43:28;6.19;;;6.02;;
66669;SDS011;53568;52.164;4.472;2022-10-30T15:45:58;6.53;;;6.35;;
66669;SDS011;53568;52.164;4.472;2022-10-30T15:48:27;5.96;;;5.89;;
66669;SDS011;53568;52.164;4.472;2022-10-30T15:51:05;5.92;;;5.83;;
66669;SDS011;53568;52.164;4.472;2022-10-30T15:53:38;6.81;;;6.66;;
66669;SDS011;53568;52.164;4.472;2022-10-30T15:56:14;5.52;;;5.45;;
66669;SDS011;53568;52.164;4.472;2022-10-30T15:58:49;6.02;;;5.96;;
66669;SDS011;53568;52.164;4.472;2022-10-30T16:01:25;5.65;;;5.58;;
66669;SDS011;53568;52.164;4.472;2022-10-30T16:03:56;6.30;;;6.09;;
66669;SDS011;53568;52.164;4.472;2022-10-30T16:06:24;6.41;;;6.20;;
66669;SDS011;53568;52.164;4.472;2022-10-30T16:08:54;6.14;;;6.02;;
66669;SDS011;53568;52.164;4.472;2022-10-30T16:11:21;6.24;;;6.06;;
66669;SDS011;53568;52.164;4.472;2022-10-30T16:13:49;5.48;;;5.28;;
66669;SDS011;53568;52.164;4.472;2022-10-30T16:16:25;5.34;;;5.24;;
66669;SDS011;53568;52.164;4.472;2022-10-30T16:18:58;5.36;;;5.24;;
66669;SDS011;53568;52.164;4.472;2022-10-30T16:21:27;5.58;;;5.44;;
66669;SDS011;53568;52.164;4.472;2022-10-30T16:23:59;5.68;;;5.55;;
66669;SDS011;53568;52.164;4.472;2022-10-30T16:29:22;5.87;;;5.73;;
66669;SDS011;53568;52.164;4.472;2022-10-30T16:31:48;5.67;;;5.54;;
66669;SDS011;53568;52.164;4.472;2022-10-30T16:34:28;5.66;;;5.61;;
66669;SDS011;53568;52.164;4.472;2022-10-30T16:36:58;6.41;;;6.35;;
66669;SDS011;53568;52.164;4.472;2022-10-30T16:39:26;7.09;;;6.95;;
66669;SDS011;53568;52.164;4.472;2022-10-30T16:41:55;7.26;;;7.18;;
66669;SDS011;53568;52.164;4.472;2022-10-30T16:44:26;6.83;;;6.83;;
66669;SDS011;53568;52.164;4.472;2022-10-30T16:49:37;7.61;;;7.59;;
66669;SDS011;53568;52.164;4.472;2022-10-30T16:52:13;7.78;;;7.77;;
66669;SDS011;53568;52.164;4.472;2022-10-30T16:54:48;7.29;;;7.29;;
66669;SDS011;53568;52.164;4.472;2022-10-30T16:57:26;7.46;;;7.45;;
66669;SDS011;53568;52.164;4.472;2022-10-30T16:59:55;7.69;;;7.66;;
66669;SDS011;53568;52.164;4.472;2022-10-30T17:02:25;7.36;;;7.36;;
66669;SDS011;53568;52.164;4.472;2022-10-30T17:05:00;7.45;;;7.45;;
66669;SDS011;53568;52.164;4.472;2022-10-30T17:07:36;7.31;;;7.27;;
66669;SDS011;53568;52.164;4.472;2022-10-30T17:10:03;7.38;;;7.38;;
66669;SDS011;53568;52.164;4.472;2022-10-30T17:15:57;7.33;;;7.33;;